Time;durP1;ratioP1;P1;durP2;ratioP2;P2;SDS_P1;SDS_P2;PMS_P1;PMS_P2;Temp;Humidity;BMP_temperature;BMP_pressure;BME280_temperature;BME280_humidity;BME280_pressure;Samples;Min_cycle;Max_cycle;Signal;HPM_P1;HPM_P2
2021/07/23 00:01:09;;;;;;;16.83;12.03;;;17.70;75.40;;;;;;5096283;28;20456;-79
2021/07/23 00:03:36;;;;;;;18.57;12.30;;;17.60;76.90;;;;;;5097091;28;20457;-79
2021/07/23 00:06:03;;;;;;;17.70;11.73;;;17.50;78.00;;;;;;5098287;28;20491;-79
2021/07/23 00:08:30;;;;;;;14.47;11.27;;;17.40;78.60;;;;;;5103137;28;20502;-82
2021/07/23 00:10:57;;;;;;;17.40;12.83;;;17.40;78.80;;;;;;5100077;28;20549;-79
2021/07/23 00:13:26;;;;;;;13.60;11.80;;;17.30;79.50;;;;;;5110968;28;20426;-82
2021/07/23 00:15:53;;;;;;;13.87;12.07;;;17.30;80.10;;;;;;5104092;28;20455;-80
2021/07/23 00:18:19;;;;;;;14.33;12.13;;;17.20;80.70;;;;;;5107543;28;20454;-80
2021/07/23 00:20:46;;;;;;;14.33;12.40;;;17.20;80.90;;;;;;5106425;28;20457;-79
2021/07/23 00:23:13;;;;;;;21.50;12.10;;;17.20;81.30;;;;;;5106842;28;20479;-80
2021/07/23 00:25:40;;;;;;;17.20;11.70;;;17.20;82.10;;;;;;5104408;28;20526;-79
2021/07/23 00:28:07;;;;;;;14.93;11.90;;;17.10;82.80;;;;;;5102676;28;20524;-78
2021/07/23 00:30:35;;;;;;;16.13;11.93;;;17.10;82.80;;;;;;5102649;28;20456;-80
2021/07/23 00:33:03;;;;;;;17.63;11.83;;;17.10;82.80;;;;;;5099823;28;20479;-78
2021/07/23 00:35:30;;;;;;;14.40;12.20;;;17.10;82.80;;;;;;5099362;28;20987;-78
2021/07/23 00:37:57;;;;;;;15.13;11.60;;;17.10;82.80;;;;;;5097013;28;20445;-78
2021/07/23 00:40:24;;;;;;;13.47;11.60;;;17.00;83.30;;;;;;5095749;28;20588;-78
2021/07/23 00:42:51;;;;;;;16.30;12.30;;;17.00;82.70;;;;;;5107086;28;20458;-78
2021/07/23 00:45:20;;;;;;;17.57;13.57;;;17.00;83.20;;;;;;5096451;28;21035;-80
2021/07/23 00:47:53;;;;;;;16.97;12.80;;;17.00;83.10;;;;;;5116782;28;20460;-82
2021/07/23 00:50:21;;;;;;;16.80;11.70;;;16.90;84.40;;;;;;5114627;28;20454;-80
2021/07/23 00:52:49;;;;;;;21.47;13.20;;;16.90;85.10;;;;;;5095189;28;20467;-80
2021/07/23 00:55:17;;;;;;;14.97;12.13;;;16.90;86.50;;;;;;5095313;28;20426;-79
2021/07/23 00:57:45;;;;;;;16.17;11.93;;;16.80;86.80;;;;;;5118984;28;20464;-86
2021/07/23 01:00:13;;;;;;;15.23;13.10;;;16.80;87.90;;;;;;5115117;28;20513;-81
2021/07/23 01:02:40;;;;;;;15.97;12.53;;;16.70;90.10;;;;;;5095798;28;20469;-82
2021/07/23 01:05:10;;;;;;;17.13;13.23;;;16.60;90.30;;;;;;5095811;28;20563;-79
2021/07/23 01:07:37;;;;;;;15.67;13.10;;;16.50;90.30;;;;;;5101132;28;20459;-77
2021/07/23 01:10:05;;;;;;;18.50;13.43;;;16.50;90.80;;;;;;5094310;28;20878;-80
2021/07/23 01:12:34;;;;;;;18.20;13.20;;;16.50;91.00;;;;;;5095764;28;20513;-80
2021/07/23 01:15:01;;;;;;;19.03;13.60;;;16.50;90.90;;;;;;5095287;28;20548;-80
2021/07/23 01:17:28;;;;;;;15.13;12.70;;;16.50;90.80;;;;;;5095095;28;20483;-79
2021/07/23 01:20:01;;;;;;;17.70;13.00;;;16.50;91.00;;;;;;5095076;28;20911;-80
2021/07/23 01:22:31;;;;;;;17.80;12.70;;;16.50;90.70;;;;;;5094900;28;20482;-80
2021/07/23 01:25:01;;;;;;;18.80;13.33;;;16.50;90.80;;;;;;5095325;28;20920;-80
2021/07/23 01:27:28;;;;;;;17.43;13.37;;;16.50;91.10;;;;;;5096013;28;20454;-81
2021/07/23 01:30:01;;;;;;;14.77;12.13;;;16.40;91.30;;;;;;5095972;28;20451;-83
2021/07/23 01:32:28;;;;;;;15.30;12.43;;;16.40;91.60;;;;;;5094356;28;20993;-80
2021/07/23 01:34:55;;;;;;;17.13;12.73;;;16.40;91.80;;;;;;5094080;28;20883;-79
2021/07/23 01:37:23;;;;;;;16.70;12.73;;;16.30;92.00;;;;;;5093682;28;20296;-79
2021/07/23 01:39:53;;;;;;;17.63;13.10;;;16.30;92.50;;;;;;5094502;28;20894;-79
2021/07/23 01:42:22;;;;;;;14.77;12.10;;;16.20;93.00;;;;;;5096814;28;20499;-81
2021/07/23 01:44:48;;;;;;;16.63;12.97;;;16.20;93.20;;;;;;5103212;28;20471;-82
2021/07/23 01:47:15;;;;;;;17.07;13.53;;;16.20;93.30;;;;;;5115286;28;20415;-82
2021/07/23 01:49:42;;;;;;;14.77;12.27;;;16.20;92.90;;;;;;5115273;28;20538;-80
2021/07/23 01:52:09;;;;;;;19.23;12.10;;;16.30;92.90;;;;;;5115181;28;20430;-82
2021/07/23 01:54:36;;;;;;;17.93;13.10;;;16.30;92.10;;;;;;5114923;28;20439;-80
2021/07/23 01:57:03;;;;;;;22.17;12.43;;;16.40;91.90;;;;;;5115847;28;20446;-79
2021/07/23 01:59:33;;;;;;;16.50;12.00;;;16.40;91.70;;;;;;5104768;28;20578;-80
2021/07/23 02:02:00;;;;;;;17.23;13.30;;;16.30;91.50;;;;;;5102902;28;20450;-81
2021/07/23 02:04:27;;;;;;;15.50;11.43;;;16.30;91.60;;;;;;5108129;28;20460;-80
2021/07/23 02:06:54;;;;;;;15.17;12.23;;;16.30;91.80;;;;;;5114337;28;20477;-79
2021/07/23 02:09:21;;;;;;;17.00;12.00;;;16.30;91.90;;;;;;5093432;28;20476;-78
2021/07/23 02:11:47;;;;;;;15.17;12.67;;;16.20;92.00;;;;;;5093581;28;20471;-78
2021/07/23 02:14:14;;;;;;;14.43;12.23;;;16.20;92.00;;;;;;5093286;28;20959;-81
2021/07/23 02:16:43;;;;;;;17.60;12.17;;;16.20;92.10;;;;;;5094279;28;20546;-81
2021/07/23 02:19:10;;;;;;;14.60;12.37;;;16.20;92.00;;;;;;5094587;28;20471;-80
2021/07/23 02:21:37;;;;;;;13.90;11.77;;;16.10;92.30;;;;;;5095129;28;20514;-79
2021/07/23 02:24:05;;;;;;;14.50;11.80;;;16.10;92.60;;;;;;5097432;28;20526;-81
2021/07/23 02:26:32;;;;;;;14.80;12.20;;;16.10;92.80;;;;;;5097886;28;20554;-79
2021/07/23 02:28:59;;;;;;;17.05;12.85;;;16.00;92.60;;;;;;5095383;28;20459;-80
2021/07/23 02:31:27;;;;;;;16.30;12.67;;;16.00;92.90;;;;;;5093953;28;20267;-79
2021/07/23 02:33:55;;;;;;;15.75;11.80;;;16.00;93.20;;;;;;5094013;28;20440;-80
2021/07/23 02:36:22;;;;;;;17.50;13.52;;;16.00;93.20;;;;;;5095062;28;20210;-83
2021/07/23 02:38:49;;;;;;;15.05;12.23;;;16.00;93.20;;;;;;5094609;28;20232;-80
2021/07/23 02:41:16;;;;;;;15.17;12.73;;;16.00;92.90;;;;;;5094442;28;20228;-78
2021/07/23 02:43:45;;;;;;;16.00;11.03;;;16.00;93.20;;;;;;5093321;28;20448;-79
2021/07/23 02:46:12;;;;;;;20.80;12.33;;;16.00;93.30;;;;;;5093804;28;20490;-78
2021/07/23 02:48:39;;;;;;;17.80;14.17;;;16.00;93.60;;;;;;5096266;28;20542;-82
2021/07/23 02:51:07;;;;;;;16.47;12.17;;;15.90;93.60;;;;;;5098196;28;20531;-81
2021/07/23 02:53:34;;;;;;;15.93;12.10;;;15.90;93.40;;;;;;5098036;28;20538;-80
2021/07/23 02:56:01;;;;;;;15.03;12.43;;;15.90;93.70;;;;;;5103036;28;20232;-79
2021/07/23 02:58:28;;;;;;;17.33;12.57;;;15.90;93.70;;;;;;5097476;28;20457;-81
2021/07/23 03:00:54;;;;;;;14.80;12.03;;;15.80;93.70;;;;;;5097346;28;20582;-81
2021/07/23 03:03:21;;;;;;;13.70;11.90;;;15.80;94.00;;;;;;5096505;28;20538;-79
2021/07/23 03:05:48;;;;;;;13.13;11.17;;;15.80;93.90;;;;;;5097370;28;20558;-80
2021/07/23 03:08:16;;;;;;;14.75;12.30;;;15.80;93.70;;;;;;5101691;28;20481;-80
2021/07/23 03:10:43;;;;;;;14.40;11.48;;;15.80;93.30;;;;;;5106401;28;20264;-81
2021/07/23 03:13:10;;;;;;;16.15;12.70;;;15.80;92.90;;;;;;5104653;28;20204;-80
2021/07/23 03:15:37;;;;;;;16.73;12.40;;;15.80;93.00;;;;;;5097627;28;20244;-81
2021/07/23 03:18:04;;;;;;;16.88;12.90;;;15.80;93.10;;;;;;5098099;28;20293;-80
2021/07/23 03:20:31;;;;;;;14.48;11.43;;;15.70;93.50;;;;;;5098853;28;20311;-84
2021/07/23 03:22:58;;;;;;;17.15;12.05;;;15.70;93.50;;;;;;5098055;28;20201;-79
2021/07/23 03:25:26;;;;;;;13.77;11.25;;;15.60;93.60;;;;;;5097437;28;20304;-79
2021/07/23 03:27:53;;;;;;;14.40;12.02;;;15.60;93.60;;;;;;5098237;28;20303;-79
2021/07/23 03:30:20;;;;;;;14.13;11.45;;;15.60;93.90;;;;;;5102429;28;20748;-79
2021/07/23 03:32:47;;;;;;;15.98;12.32;;;15.60;93.60;;;;;;5098892;28;20225;-79
2021/07/23 03:35:14;;;;;;;13.55;10.90;;;15.60;93.60;;;;;;5098089;28;20201;-80
2021/07/23 03:37:41;;;;;;;15.15;11.73;;;15.60;93.60;;;;;;5097714;28;20232;-79
2021/07/23 03:40:09;;;;;;;16.15;12.10;;;15.60;93.60;;;;;;5096834;28;20217;-79
2021/07/23 03:42:37;;;;;;;14.82;11.93;;;15.60;93.90;;;;;;5097726;28;20225;-79
2021/07/23 03:45:05;;;;;;;15.32;11.43;;;15.60;94.10;;;;;;5098416;28;20288;-79
2021/07/23 03:47:32;;;;;;;13.82;11.90;;;15.50;94.30;;;;;;5100984;28;20215;-79
2021/07/23 03:49:59;;;;;;;16.48;11.43;;;15.50;94.60;;;;;;5102380;28;20291;-79
2021/07/23 03:52:26;;;;;;;15.27;12.65;;;15.50;94.90;;;;;;5106230;28;20252;-79
2021/07/23 03:54:53;;;;;;;15.80;13.48;;;15.40;95.10;;;;;;5118359;28;20181;-82
2021/07/23 03:57:20;;;;;;;14.13;11.20;;;15.40;95.30;;;;;;5118339;28;20205;-82
2021/07/23 03:59:48;;;;;;;14.75;11.82;;;15.40;95.60;;;;;;5115369;28;20225;-81
2021/07/23 04:02:15;;;;;;;14.75;11.07;;;15.40;95.60;;;;;;5116035;28;20225;-83
2021/07/23 04:04:42;;;;;;;13.52;10.63;;;15.40;95.90;;;;;;5119803;28;20197;-85
2021/07/23 04:07:09;;;;;;;19.35;12.95;;;15.40;96.00;;;;;;5119973;28;20187;-84
2021/07/23 04:09:35;;;;;;;14.35;11.50;;;15.40;95.40;;;;;;5119465;28;20205;-80
2021/07/23 04:12:03;;;;;;;15.87;11.53;;;15.50;95.60;;;;;;5105102;28;20229;-79
2021/07/23 04:14:30;;;;;;;14.90;12.50;;;15.50;94.80;;;;;;5101824;28;20449;-79
2021/07/23 04:16:58;;;;;;;12.70;11.38;;;15.60;94.50;;;;;;5103208;28;20201;-80
2021/07/23 04:19:25;;;;;;;17.17;11.93;;;15.60;93.70;;;;;;5112703;28;20220;-81
2021/07/23 04:21:52;;;;;;;15.90;10.82;;;15.50;94.10;;;;;;5109838;28;20292;-84
2021/07/23 04:24:19;;;;;;;15.80;11.13;;;15.40;94.30;;;;;;5116283;28;20205;-82
2021/07/23 04:26:46;;;;;;;15.82;12.45;;;15.40;94.60;;;;;;5109627;28;20224;-79
2021/07/23 04:29:13;;;;;;;12.77;11.23;;;15.50;94.60;;;;;;5096990;28;20295;-79
2021/07/23 04:31:39;;;;;;;15.27;12.37;;;15.60;94.80;;;;;;5099425;28;20717;-82
2021/07/23 04:34:08;;;;;;;18.40;11.50;;;15.60;94.50;;;;;;5118264;28;20446;-87
2021/07/23 04:36:36;;;;;;;14.20;11.73;;;15.70;94.10;;;;;;5118697;28;20424;-85
2021/07/23 04:39:03;;;;;;;14.03;11.40;;;15.80;93.70;;;;;;5119504;28;20427;-86
2021/07/23 04:41:30;;;;;;;17.20;12.20;;;15.80;93.10;;;;;;5118876;28;20540;-85
2021/07/23 04:43:57;;;;;;;15.60;12.37;;;15.90;92.80;;;;;;5114341;28;20479;-81
2021/07/23 04:46:24;;;;;;;14.37;11.87;;;15.90;91.90;;;;;;5111523;28;20439;-79
2021/07/23 04:48:52;;;;;;;13.80;10.93;;;15.90;91.80;;;;;;5102284;28;20959;-80
2021/07/23 04:51:20;;;;;;;13.33;10.87;;;15.90;91.40;;;;;;5099923;28;20472;-80
2021/07/23 04:53:48;;;;;;;14.40;10.77;;;16.00;90.90;;;;;;5099969;28;20939;-81
2021/07/23 04:56:15;;;;;;;17.43;11.40;;;16.10;90.10;;;;;;5101075;28;20238;-80
2021/07/23 04:58:42;;;;;;;14.70;11.67;;;16.30;89.00;;;;;;5100943;28;20465;-80
2021/07/23 05:01:09;;;;;;;14.37;11.07;;;16.50;87.00;;;;;;5101813;28;20477;-80
2021/07/23 05:03:37;;;;;;;14.80;10.87;;;16.60;84.00;;;;;;5101259;28;20884;-82
2021/07/23 05:06:06;;;;;;;17.93;10.37;;;17.00;81.20;;;;;;5110734;28;20412;-82
2021/07/23 05:08:35;;;;;;;14.43;10.40;;;17.50;77.00;;;;;;5112029;28;20424;-80
2021/07/23 05:11:03;;;;;;;12.43;9.87;;;17.90;71.50;;;;;;5107445;28;20443;-83
2021/07/23 05:13:31;;;;;;;13.43;9.90;;;18.20;69.50;;;;;;5104148;28;20520;-80
2021/07/23 05:15:58;;;;;;;14.80;10.97;;;18.60;66.50;;;;;;5107163;28;20494;-80
2021/07/23 05:18:26;;;;;;;13.90;10.43;;;19.00;66.90;;;;;;5102231;28;20436;-80
2021/07/23 05:20:53;;;;;;;14.73;10.77;;;19.00;63.00;;;;;;5099570;28;20559;-78
2021/07/23 05:23:19;;;;;;;14.73;10.27;;;19.10;62.40;;;;;;5098121;28;20977;-78
2021/07/23 05:25:48;;;;;;;25.27;11.30;;;19.00;63.90;;;;;;5099271;28;20927;-80
2021/07/23 05:28:15;;;;;;;12.40;9.60;;;19.10;64.10;;;;;;5097767;28;20540;-78
2021/07/23 05:30:42;;;;;;;14.97;10.40;;;19.50;61.30;;;;;;5094754;28;20549;-79
2021/07/23 05:33:09;;;;;;;12.00;9.70;;;19.50;61.60;;;;;;5094634;28;20985;-79
2021/07/23 05:35:36;;;;;;;16.33;10.43;;;20.20;58.80;;;;;;5096185;28;20483;-79
2021/07/23 05:38:03;;;;;;;12.63;10.27;;;21.00;54.80;;;;;;5097348;28;20537;-79
2021/07/23 05:40:30;;;;;;;13.90;10.00;;;21.00;53.20;;;;;;5104161;28;20491;-80
2021/07/23 05:42:59;;;;;;;14.63;9.73;;;20.70;54.90;;;;;;5098410;28;20460;-80
2021/07/23 05:45:25;;;;;;;11.13;9.30;;;20.80;53.90;;;;;;5095567;28;20459;-78
2021/07/23 05:47:52;;;;;;;12.77;9.80;;;20.70;54.40;;;;;;5093905;28;20460;-78
2021/07/23 05:50:19;;;;;;;10.90;9.07;;;20.80;53.90;;;;;;5094517;28;20523;-79
2021/07/23 05:52:46;;;;;;;11.13;8.80;;;21.20;52.80;;;;;;5096160;28;20520;-80
2021/07/23 05:55:13;;;;;;;12.07;10.03;;;20.70;55.70;;;;;;5095087;28;20482;-80
2021/07/23 05:57:40;;;;;;;13.57;8.93;;;20.90;53.50;;;;;;5094409;28;20557;-79
2021/07/23 06:00:11;;;;;;;11.47;8.83;;;21.70;51.10;;;;;;5096665;28;20459;-79
2021/07/23 06:02:38;;;;;;;13.27;9.93;;;21.80;50.50;;;;;;5096759;28;20505;-79
2021/07/23 06:05:06;;;;;;;16.10;10.43;;;21.70;50.40;;;;;;5102103;28;20507;-80
2021/07/23 06:07:33;;;;;;;10.97;9.40;;;21.70;50.40;;;;;;5102255;28;20450;-80
2021/07/23 06:10:00;;;;;;;13.73;9.60;;;21.90;50.60;;;;;;5103057;28;20484;-80
2021/07/23 06:12:27;;;;;;;12.80;9.67;;;22.40;48.90;;;;;;5101199;28;20515;-81
2021/07/23 06:14:54;;;;;;;11.07;9.67;;;23.10;46.80;;;;;;5102312;28;20414;-81
2021/07/23 06:17:22;;;;;;;10.00;8.43;;;23.00;46.50;;;;;;5101648;28;20485;-80
2021/07/23 06:19:49;;;;;;;11.53;9.70;;;23.10;46.40;;;;;;5101859;28;20485;-80
2021/07/23 06:22:18;;;;;;;11.30;9.30;;;22.30;48.10;;;;;;5103353;28;20491;-79
2021/07/23 06:24:45;;;;;;;15.33;9.00;;;22.50;47.70;;;;;;5108280;28;20454;-80
2021/07/23 06:27:12;;;;;;;14.00;8.97;;;22.40;47.60;;;;;;5106708;28;20426;-79
2021/07/23 06:29:39;;;;;;;10.57;9.20;;;22.20;47.60;;;;;;5105453;28;20484;-79
2021/07/23 06:32:06;;;;;;;13.27;10.27;;;22.20;47.50;;;;;;5118742;28;20496;-78
2021/07/23 06:34:34;;;;;;;13.57;8.90;;;22.30;47.10;;;;;;5120759;28;20442;-79
2021/07/23 06:37:04;;;;;;;10.00;9.00;;;22.00;48.50;;;;;;5121683;28;20439;-77
2021/07/23 06:39:31;;;;;;;13.20;9.23;;;22.40;46.60;;;;;;5121244;28;20447;-77
2021/07/23 06:41:59;;;;;;;11.67;9.30;;;23.10;44.50;;;;;;5109043;28;20829;-80
2021/07/23 06:44:29;;;;;;;10.00;8.93;;;23.70;42.30;;;;;;5106492;28;20466;-79
2021/07/23 06:46:55;;;;;;;14.03;8.97;;;23.70;42.80;;;;;;5106097;28;20474;-79
2021/07/23 06:49:22;;;;;;;13.13;9.63;;;22.80;45.10;;;;;;5111327;28;20459;-79
2021/07/23 06:51:51;;;;;;;11.40;9.17;;;22.60;45.70;;;;;;5117965;28;20462;-77
2021/07/23 06:54:17;;;;;;;11.57;8.40;;;22.70;45.80;;;;;;5114931;28;20462;-79
2021/07/23 06:56:44;;;;;;;9.67;8.67;;;23.00;44.90;;;;;;5100829;28;20537;-79
2021/07/23 06:59:11;;;;;;;9.77;8.70;;;23.20;44.10;;;;;;5100106;28;20761;-78
2021/07/23 07:01:39;;;;;;;11.07;9.70;;;22.60;44.00;;;;;;5104978;28;20482;-79
2021/07/23 07:04:06;;;;;;;10.73;9.23;;;22.30;44.90;;;;;;5117050;28;20800;-79
2021/07/23 07:06:33;;;;;;;11.67;8.53;;;22.30;45.10;;;;;;5117906;28;20464;-78
2021/07/23 07:09:01;;;;;;;10.37;8.97;;;21.70;46.60;;;;;;5116590;28;20487;-79
2021/07/23 07:11:28;;;;;;;12.70;9.27;;;21.50;47.80;;;;;;5099118;28;20504;-78
2021/07/23 07:13:55;;;;;;;15.47;9.30;;;21.20;48.50;;;;;;5098597;28;20516;-79
2021/07/23 07:16:22;;;;;;;12.10;8.57;;;21.20;49.90;;;;;;5105469;28;20539;-79
2021/07/23 07:18:49;;;;;;;13.40;8.30;;;21.60;48.80;;;;;;5107078;28;20853;-79
2021/07/23 07:21:15;;;;;;;9.43;8.30;;;21.80;46.80;;;;;;5109074;28;21019;-80
2021/07/23 07:23:42;;;;;;;12.20;9.00;;;21.80;46.90;;;;;;5101672;28;20484;-78
2021/07/23 07:26:11;;;;;;;16.43;9.27;;;21.80;47.60;;;;;;5102628;28;20483;-79
2021/07/23 07:28:38;;;;;;;13.57;8.60;;;21.70;47.90;;;;;;5118197;28;20937;-80
2021/07/23 07:31:05;;;;;;;10.80;8.53;;;21.70;48.70;;;;;;5116593;28;21086;-81
2021/07/23 07:33:32;;;;;;;11.33;8.60;;;21.90;46.70;;;;;;5116043;28;20456;-80
2021/07/23 07:35:59;;;;;;;9.37;8.37;;;22.00;47.00;;;;;;5114655;28;20455;-79
2021/07/23 07:38:26;;;;;;;10.50;8.03;;;21.90;48.30;;;;;;5109689;28;20447;-79
2021/07/23 07:40:53;;;;;;;15.07;8.00;;;22.00;47.00;;;;;;5104772;28;20552;-79
2021/07/23 07:43:22;;;;;;;12.70;8.83;;;22.00;46.50;;;;;;5108797;28;20456;-80
2021/07/23 07:45:52;;;;;;;14.93;9.70;;;22.00;47.30;;;;;;5116052;28;20494;-79
2021/07/23 07:48:21;;;;;;;9.70;8.40;;;22.10;47.20;;;;;;5110477;28;20443;-80
2021/07/23 07:50:47;;;;;;;9.20;7.90;;;21.90;47.80;;;;;;5119549;28;20453;-85
2021/07/23 07:53:14;;;;;;;11.20;9.20;;;22.00;46.50;;;;;;5112146;28;20452;-78
2021/07/23 07:55:42;;;;;;;10.00;8.40;;;22.10;46.90;;;;;;5108304;28;20453;-81
2021/07/23 07:58:10;;;;;;;8.77;7.87;;;22.00;46.80;;;;;;5111054;28;20468;-83
2021/07/23 08:00:47;;;;;;;9.90;8.33;;;22.00;47.80;;;;;;5113153;22;20492;-79
2021/07/23 08:03:22;;;;;;;10.30;8.20;;;22.00;47.40;;;;;;5054382;28;20765;-79
2021/07/23 08:06:01;;;;;;;10.63;9.20;;;22.40;46.10;;;;;;5052723;28;20436;-79
2021/07/23 08:08:27;;;;;;;10.03;8.63;;;22.50;46.10;;;;;;5058506;28;20451;-81
2021/07/23 08:10:56;;;;;;;9.37;8.13;;;22.80;44.80;;;;;;5051199;28;20472;-80
2021/07/23 08:13:27;;;;;;;9.13;8.07;;;22.90;46.30;;;;;;5051242;28;20438;-79
2021/07/23 08:15:56;;;;;;;11.27;8.60;;;22.70;46.50;;;;;;5050390;28;20465;-79
2021/07/23 08:18:23;;;;;;;9.87;8.87;;;22.80;47.20;;;;;;5051531;28;20445;-79
2021/07/23 08:20:51;;;;;;;11.27;9.00;;;23.10;45.80;;;;;;5050944;28;20450;-79
2021/07/23 08:23:26;;;;;;;10.90;8.83;;;23.00;46.20;;;;;;5050925;28;20461;-80
2021/07/23 08:25:53;;;;;;;8.87;7.90;;;23.20;46.00;;;;;;5054364;28;20443;-80
2021/07/23 08:28:21;;;;;;;13.60;8.63;;;23.30;45.50;;;;;;5053266;28;20464;-78
2021/07/23 08:30:48;;;;;;;13.70;8.00;;;23.10;45.70;;;;;;5049611;28;20462;-79
2021/07/23 08:33:16;;;;;;;9.13;8.20;;;23.20;45.40;;;;;;5049084;28;20444;-79
2021/07/23 08:35:45;;;;;;;10.53;8.40;;;23.50;44.70;;;;;;5046017;28;20413;-80
2021/07/23 08:38:12;;;;;;;11.10;8.77;;;23.80;42.90;;;;;;5051862;28;20573;-80
2021/07/23 08:40:39;;;;;;;12.87;8.40;;;23.90;42.90;;;;;;5052369;28;20443;-81
2021/07/23 08:43:06;;;;;;;9.40;8.10;;;23.90;42.50;;;;;;5053588;28;20498;-79
2021/07/23 08:45:33;;;;;;;16.40;9.20;;;23.90;42.50;;;;;;5054427;28;20429;-81
2021/07/23 08:48:01;;;;;;;10.67;7.70;;;23.80;43.30;;;;;;5056255;28;20428;-80
2021/07/23 08:50:30;;;;;;;12.30;9.13;;;23.90;43.30;;;;;;5056875;28;20467;-80
2021/07/23 08:52:57;;;;;;;10.50;7.30;;;24.20;42.70;;;;;;5057070;28;20437;-79
2021/07/23 08:55:27;;;;;;;11.30;8.63;;;24.10;42.60;;;;;;5054569;28;20423;-81
2021/07/23 08:57:54;;;;;;;10.07;6.83;;;24.00;42.60;;;;;;5057958;28;20519;-80
2021/07/23 09:00:22;;;;;;;9.80;8.43;;;24.20;40.20;;;;;;5057660;28;20438;-79
2021/07/23 09:02:54;;;;;;;8.30;7.50;;;24.00;40.00;;;;;;5057132;28;20452;-79
2021/07/23 09:05:23;;;;;;;10.60;8.40;;;24.30;40.30;;;;;;5049382;28;20453;-80
2021/07/23 09:07:52;;;;;;;10.20;7.67;;;24.70;38.60;;;;;;5042460;28;20446;-79
2021/07/23 09:10:26;;;;;;;10.33;8.60;;;24.70;38.90;;;;;;5041663;28;20416;-80
2021/07/23 09:12:54;;;;;;;11.97;8.53;;;24.80;36.10;;;;;;5042097;28;20926;-80
2021/07/23 09:15:27;;;;;;;7.80;7.00;;;24.80;36.70;;;;;;5045533;28;20423;-80
2021/07/23 09:17:55;;;;;;;14.00;8.47;;;24.80;37.70;;;;;;5050502;28;20425;-80
2021/07/23 09:20:27;;;;;;;9.07;7.20;;;25.00;37.90;;;;;;5053273;28;20433;-80
2021/07/23 09:22:58;;;;;;;11.03;7.97;;;25.10;36.60;;;;;;5052749;28;20469;-80
2021/07/23 09:25:39;;;;;;;11.00;7.70;;;25.10;35.80;;;;;;5054248;28;20546;-80
2021/07/23 09:28:28;;;;;;;10.43;7.20;;;25.10;36.90;;;;;;5054729;28;20800;-80
2021/07/23 09:30:56;;;;;;;14.67;8.17;;;25.10;37.10;;;;;;5056832;28;20497;-80
2021/07/23 09:33:26;;;;;;;8.27;7.47;;;25.00;37.60;;;;;;5054870;28;20973;-80
2021/07/23 09:35:55;;;;;;;8.03;7.23;;;25.10;36.90;;;;;;5053777;28;20405;-80
2021/07/23 09:38:24;;;;;;;9.20;7.90;;;25.10;36.70;;;;;;5056429;28;20421;-80
2021/07/23 09:40:52;;;;;;;9.57;8.57;;;24.90;36.50;;;;;;5051518;28;20978;-80
2021/07/23 09:43:36;;;;;;;8.33;7.07;;;25.10;37.50;;;;;;5044131;28;20464;-79
2021/07/23 09:46:34;;;;;;;8.97;7.53;;;25.10;37.10;;;;;;5038044;28;20438;-79
2021/07/23 09:49:02;;;;;;;9.27;6.97;;;25.40;36.10;;;;;;5040018;28;20428;-80
2021/07/23 09:51:30;;;;;;;8.53;7.63;;;25.60;35.30;;;;;;5039397;28;20530;-80
2021/07/23 09:53:59;;;;;;;9.70;7.33;;;25.70;33.60;;;;;;5037492;28;20477;-79
2021/07/23 09:56:27;;;;;;;10.50;8.00;;;25.70;33.60;;;;;;5049147;28;20426;-80
2021/07/23 09:58:59;;;;;;;7.97;7.10;;;25.50;33.50;;;;;;5054626;28;20445;-80
2021/07/23 10:01:40;;;;;;;9.97;7.57;;;25.60;32.30;;;;;;5044795;28;20449;-80
2021/07/23 10:04:20;;;;;;;8.00;6.73;;;25.70;33.60;;;;;;5048041;28;20456;-78
2021/07/23 10:06:54;;;;;;;9.27;7.20;;;25.60;33.50;;;;;;5051642;28;20469;-80
2021/07/23 10:09:27;;;;;;;9.80;7.03;;;25.70;33.60;;;;;;5056467;28;20451;-80
2021/07/23 10:11:56;;;;;;;7.50;6.80;;;25.90;33.80;;;;;;5054094;28;20485;-79
2021/07/23 10:14:28;;;;;;;8.77;7.50;;;25.90;33.80;;;;;;5052436;28;20451;-79
2021/07/23 10:16:55;;;;;;;8.13;7.27;;;26.20;32.20;;;;;;5055617;28;20443;-78
2021/07/23 10:19:23;;;;;;;9.63;7.93;;;25.90;33.80;;;;;;5056587;28;20440;-80
2021/07/23 10:21:54;;;;;;;13.00;7.97;;;25.70;33.60;;;;;;5056377;28;20515;-79
2021/07/23 10:24:26;;;;;;;10.70;7.80;;;26.00;33.80;;;;;;5052557;28;20452;-81
2021/07/23 10:26:54;;;;;;;13.33;8.17;;;26.30;33.20;;;;;;5050457;28;20526;-80
2021/07/23 10:29:42;;;;;;;11.77;7.80;;;26.20;32.70;;;;;;5051033;28;20453;-81
2021/07/23 10:32:30;;;;;;;10.13;7.23;;;26.30;32.50;;;;;;5053436;28;20460;-81
2021/07/23 10:34:58;;;;;;;7.53;6.50;;;26.10;31.80;;;;;;5055218;28;20461;-80
2021/07/23 10:37:50;;;;;;;8.77;6.77;;;25.90;29.70;;;;;;5054796;28;20437;-80
2021/07/23 10:40:20;;;;;;;8.47;6.90;;;26.60;28.90;;;;;;5055086;28;20497;-80
2021/07/23 10:42:48;;;;;;;8.43;7.63;;;26.40;30.60;;;;;;5049482;28;20480;-79
2021/07/23 10:45:20;;;;;;;13.13;8.70;;;26.60;31.00;;;;;;5046798;28;20515;-80
2021/07/23 10:47:48;;;;;;;11.80;8.00;;;26.50;30.60;;;;;;5051993;28;20428;-79
2021/07/23 10:50:31;;;;;;;9.80;7.63;;;26.30;30.90;;;;;;5055566;28;20448;-80
2021/07/23 10:53:33;;;;;;;12.63;7.93;;;26.30;31.00;;;;;;5056267;28;20435;-79
2021/07/23 10:56:02;;;;;;;14.03;8.00;;;26.70;30.90;;;;;;5056568;28;20440;-79
2021/07/23 10:58:33;;;;;;;8.83;7.97;;;27.00;30.70;;;;;;5054180;28;20457;-79
2021/07/23 11:01:02;;;;;;;8.63;7.83;;;27.30;29.40;;;;;;5048493;28;20489;-80
2021/07/23 11:04:01;;;;;;;11.10;9.00;;;26.90;30.30;;;;;;5040797;28;20527;-80
2021/07/23 11:06:34;;;;;;;10.07;8.33;;;26.90;30.30;;;;;;5039543;28;20453;-80
2021/07/23 11:09:04;;;;;;;11.20;8.90;;;26.80;29.60;;;;;;5040497;28;20445;-79
2021/07/23 11:11:33;;;;;;;9.70;8.50;;;26.70;29.00;;;;;;5050986;28;20584;-80
2021/07/23 11:14:18;;;;;;;9.33;8.30;;;26.30;28.70;;;;;;5058738;28;20472;-79
2021/07/23 11:16:45;;;;;;;13.07;8.30;;;26.90;28.80;;;;;;5058436;28;20449;-80
2021/07/23 11:19:19;;;;;;;10.93;8.30;;;27.20;28.50;;;;;;5054954;28;20413;-80
2021/07/23 11:21:46;;;;;;;8.60;7.80;;;27.10;28.70;;;;;;5042441;28;20452;-80
2021/07/23 11:24:15;;;;;;;9.10;8.20;;;26.90;28.70;;;;;;5039539;28;20436;-80
2021/07/23 11:26:52;;;;;;;9.13;8.23;;;27.20;28.70;;;;;;5040239;28;20450;-80
2021/07/23 11:29:41;;;;;;;8.40;7.50;;;27.50;27.30;;;;;;5039182;28;20975;-80
2021/07/23 11:32:14;;;;;;;9.23;8.30;;;27.70;27.70;;;;;;5041379;28;20462;-81
2021/07/23 11:34:44;;;;;;;9.30;8.50;;;27.70;27.40;;;;;;5046529;28;20457;-80
2021/07/23 11:37:20;;;;;;;9.53;8.53;;;27.50;27.70;;;;;;5045870;28;20449;-80
2021/07/23 11:40:16;;;;;;;8.77;7.90;;;27.60;27.10;;;;;;5051290;28;20496;-81
2021/07/23 11:42:50;;;;;;;9.70;8.70;;;27.60;27.50;;;;;;5046109;28;20842;-80
2021/07/23 11:45:18;;;;;;;10.23;7.83;;;27.50;27.50;;;;;;5047509;28;20521;-80
2021/07/23 11:47:47;;;;;;;9.30;8.40;;;27.70;27.70;;;;;;5050384;28;20516;-80
2021/07/23 11:50:15;;;;;;;9.67;8.73;;;27.50;28.20;;;;;;5042097;28;20507;-81
2021/07/23 11:52:43;;;;;;;9.73;8.70;;;27.80;27.70;;;;;;5042687;28;20455;-81
2021/07/23 11:55:11;;;;;;;11.97;9.77;;;27.80;28.50;;;;;;5055679;28;20488;-81
2021/07/23 11:57:40;;;;;;;10.40;7.80;;;27.60;28.70;;;;;;5053248;28;20453;-80
2021/07/23 12:00:22;;;;;;;9.90;8.90;;;27.80;27.90;;;;;;5043137;28;20447;-80
2021/07/23 12:02:51;;;;;;;8.80;7.60;;;28.00;27.30;;;;;;5041515;28;20966;-80
2021/07/23 12:05:18;;;;;;;8.60;7.70;;;28.20;27.50;;;;;;5040984;28;20461;-80
2021/07/23 12:07:57;;;;;;;10.77;9.23;;;28.20;27.60;;;;;;5042658;28;20462;-80
2021/07/23 12:10:25;;;;;;;12.00;8.93;;;28.00;28.10;;;;;;5047521;28;20432;-81
2021/07/23 12:12:53;;;;;;;11.33;8.50;;;28.10;27.70;;;;;;5049452;28;20413;-81
2021/07/23 12:15:21;;;;;;;11.80;8.90;;;28.00;28.20;;;;;;5050155;28;20443;-80
2021/07/23 12:17:50;;;;;;;13.43;8.37;;;28.30;27.50;;;;;;5047958;28;20508;-80
2021/07/23 12:20:26;;;;;;;10.17;9.03;;;28.50;27.20;;;;;;5040360;28;20440;-80
2021/07/23 12:22:58;;;;;;;9.70;8.70;;;28.50;27.40;;;;;;5043227;28;20472;-81
2021/07/23 12:25:27;;;;;;;13.47;7.70;;;28.70;27.00;;;;;;5041401;28;20454;-81
2021/07/23 12:28:10;;;;;;;11.77;9.10;;;28.70;27.20;;;;;;5037780;28;20461;-79
2021/07/23 12:30:39;;;;;;;12.37;9.17;;;28.70;26.30;;;;;;5039931;28;20539;-80
2021/07/23 12:33:22;;;;;;;9.97;8.50;;;28.70;26.90;;;;;;5038941;28;20428;-80
2021/07/23 12:35:57;;;;;;;8.97;8.10;;;28.70;27.20;;;;;;5039962;28;20413;-80
2021/07/23 12:38:25;;;;;;;10.40;8.47;;;28.60;27.50;;;;;;5042267;28;20439;-80
2021/07/23 12:40:54;;;;;;;9.43;8.33;;;28.70;26.30;;;;;;5052019;28;20458;-82
2021/07/23 12:43:26;;;;;;;11.13;9.47;;;28.20;28.10;;;;;;5057128;28;20452;-80
2021/07/23 12:45:54;;;;;;;9.70;7.83;;;28.00;28.40;;;;;;5054624;28;20917;-81